Time;durP1;ratioP1;P1;durP2;ratioP2;P2;SDS_P1;SDS_P2;PMS_P1;PMS_P2;Temp;Humidity;BMP_temperature;BMP_pressure;BME280_temperature;BME280_humidity;BME280_pressure;Samples;Min_cycle;Max_cycle;Signal;HPM_P1;HPM_P2
2022/10/02 00:00:45;;;;;;;15.63;2.90;;;14.00;99.90;;;;;;5047801;28;20021;-75
2022/10/02 00:03:20;;;;;;;22.65;3.20;;;14.10;99.90;;;;;;5047918;28;20116;-75
2022/10/02 00:05:51;;;;;;;29.58;4.32;;;14.10;99.90;;;;;;5031197;28;20071;-75
2022/10/02 00:08:40;;;;;;;23.45;3.30;;;14.10;99.90;;;;;;5029668;28;20042;-75
2022/10/02 00:11:12;;;;;;;25.55;3.95;;;14.10;99.90;;;;;;5029174;28;20060;-75
2022/10/02 00:13:55;;;;;;;24.35;3.25;;;14.20;99.90;;;;;;5041494;28;20025;-76
2022/10/02 00:16:32;;;;;;;24.05;3.83;;;14.20;99.90;;;;;;5047254;28;20393;-75
2022/10/02 00:18:57;;;;;;;28.63;3.70;;;14.30;99.90;;;;;;5035078;28;20037;-76
2022/10/02 00:21:32;;;;;;;26.88;3.55;;;14.30;99.90;;;;;;5069169;28;20112;-76
2022/10/02 00:24:01;;;;;;;27.38;3.65;;;14.40;99.90;;;;;;5097322;28;20032;-76
2022/10/02 00:26:32;;;;;;;28.75;3.83;;;14.40;99.90;;;;;;5092007;28;20039;-75
2022/10/02 00:29:12;;;;;;;27.23;3.95;;;14.50;99.90;;;;;;5111106;28;20457;-76
2022/10/02 00:32:09;;;;;;;31.10;4.15;;;14.60;99.90;;;;;;5092439;28;20502;-75
2022/10/02 00:34:37;;;;;;;19.48;3.22;;;14.70;99.90;;;;;;5108722;28;20375;-76
2022/10/02 00:37:06;;;;;;;30.08;3.45;;;14.80;99.90;;;;;;5098935;28;20019;-75
2022/10/02 00:39:56;;;;;;;28.70;3.97;;;14.90;99.90;;;;;;5108241;28;20424;-76
2022/10/02 00:43:10;;;;;;;25.13;3.35;;;15.00;99.90;;;;;;5097732;28;20054;-76
2022/10/02 00:46:02;;;;;;;24.50;3.72;;;15.00;99.90;;;;;;4999099;28;20053;-76
2022/10/02 00:48:36;;;;;;;27.58;3.28;;;15.10;99.90;;;;;;5003554;28;20058;-76
2022/10/02 00:51:21;;;;;;;27.13;3.08;;;15.10;99.90;;;;;;4999481;28;20029;-75
2022/10/02 00:54:05;;;;;;;29.17;3.88;;;15.20;99.90;;;;;;4991442;28;20037;-77
2022/10/02 00:56:43;;;;;;;25.45;3.63;;;15.20;99.90;;;;;;5007725;28;20041;-75
2022/10/02 00:59:19;;;;;;;27.35;3.50;;;15.20;99.90;;;;;;5008008;28;20034;-75
2022/10/02 01:02:31;;;;;;;31.45;3.95;;;15.30;99.90;;;;;;5007794;28;20037;-76
2022/10/02 01:04:59;;;;;;;19.67;3.38;;;15.30;99.90;;;;;;4990164;28;20153;-75
2022/10/02 01:07:26;;;;;;;29.90;4.10;;;15.30;99.90;;;;;;5007418;28;20038;-76
2022/10/02 01:09:52;;;;;;;25.85;3.95;;;15.30;99.90;;;;;;5007689;28;20068;-76
2022/10/02 01:12:18;;;;;;;25.30;3.50;;;15.30;99.90;;;;;;5007426;28;20466;-76
2022/10/02 01:14:44;;;;;;;22.23;3.40;;;15.40;99.90;;;;;;5007651;28;20026;-76
2022/10/02 01:17:36;;;;;;;22.30;3.60;;;15.40;99.90;;;;;;5007530;28;20485;-76
2022/10/02 01:20:04;;;;;;;23.80;2.83;;;15.50;99.90;;;;;;5035316;28;20041;-76
2022/10/02 01:22:39;;;;;;;26.50;3.47;;;15.50;99.90;;;;;;5051837;28;20048;-76
2022/10/02 01:25:06;;;;;;;26.50;3.63;;;15.50;99.90;;;;;;5053121;28;20036;-76
2022/10/02 01:27:33;;;;;;;21.45;3.13;;;15.50;99.90;;;;;;5069930;28;20175;-75
2022/10/02 01:30:06;;;;;;;25.23;3.50;;;15.40;99.90;;;;;;5073678;28;20422;-75
2022/10/02 01:32:34;;;;;;;25.50;2.85;;;15.40;99.90;;;;;;5073095;28;20355;-75
2022/10/02 01:35:00;;;;;;;27.08;3.65;;;15.40;99.90;;;;;;5073319;28;20032;-76
2022/10/02 01:37:31;;;;;;;28.15;3.47;;;15.40;99.90;;;;;;5072928;28;20037;-76
2022/10/02 01:40:03;;;;;;;24.83;3.72;;;15.40;99.90;;;;;;5072954;28;20017;-75
2022/10/02 01:42:29;;;;;;;26.42;3.97;;;15.40;99.90;;;;;;5073263;28;20553;-75
2022/10/02 01:44:55;;;;;;;28.80;3.72;;;15.40;99.90;;;;;;5089665;28;20073;-76
2022/10/02 01:47:30;;;;;;;25.35;3.45;;;15.40;99.90;;;;;;5113892;28;20097;-76
2022/10/02 01:50:44;;;;;;;27.50;3.63;;;15.30;99.90;;;;;;5113518;28;20024;-76
2022/10/02 01:53:14;;;;;;;24.17;3.90;;;15.30;99.90;;;;;;5084919;28;20590;-76
2022/10/02 01:55:56;;;;;;;25.92;3.85;;;15.30;99.90;;;;;;5107301;28;20051;-76
2022/10/02 01:58:54;;;;;;;20.38;3.42;;;15.30;99.90;;;;;;5098980;28;20047;-77
2022/10/02 02:01:23;;;;;;;19.55;2.80;;;15.30;99.90;;;;;;5047475;28;20035;-76
2022/10/02 02:04:07;;;;;;;18.92;3.25;;;15.30;99.90;;;;;;5100956;28;20024;-76
2022/10/02 02:06:52;;;;;;;22.73;3.87;;;15.30;99.90;;;;;;5094914;28;20400;-76
2022/10/02 02:09:30;;;;;;;26.52;3.42;;;15.30;99.90;;;;;;5102266;28;20800;-75
2022/10/02 02:12:22;;;;;;;21.52;2.97;;;15.20;99.90;;;;;;5082713;28;20576;-75
2022/10/02 02:14:59;;;;;;;18.25;3.30;;;15.20;99.90;;;;;;5089379;28;20500;-76
2022/10/02 02:17:31;;;;;;;22.73;3.25;;;15.20;99.90;;;;;;5092360;28;20024;-75
2022/10/02 02:20:09;;;;;;;25.25;3.72;;;15.20;99.90;;;;;;5092483;28;20103;-75
2022/10/02 02:22:43;;;;;;;24.02;3.17;;;15.20;99.90;;;;;;5107113;28;20046;-75
2022/10/02 02:25:16;;;;;;;26.67;3.45;;;15.10;99.90;;;;;;5092467;28;20111;-75
2022/10/02 02:27:47;;;;;;;29.25;3.78;;;15.10;99.90;;;;;;5110622;28;20111;-75
2022/10/02 02:30:14;;;;;;;23.98;3.80;;;15.10;99.90;;;;;;5094264;28;20056;-75
2022/10/02 02:32:46;;;;;;;19.50;3.75;;;15.10;99.90;;;;;;5087789;28;20565;-75
2022/10/02 02:35:26;;;;;;;26.05;3.22;;;15.10;99.90;;;;;;5092236;28;20031;-75
2022/10/02 02:37:56;;;;;;;26.60;3.15;;;15.10;99.90;;;;;;5096136;28;20137;-76
2022/10/02 02:40:27;;;;;;;30.58;3.75;;;15.10;99.90;;;;;;5105421;28;20015;-75
2022/10/02 02:42:58;;;;;;;24.42;3.75;;;15.10;99.90;;;;;;5101783;28;20024;-75
2022/10/02 02:45:34;;;;;;;25.63;3.63;;;15.10;99.90;;;;;;5083797;28;20055;-75
2022/10/02 02:48:08;;;;;;;27.30;3.60;;;15.10;99.90;;;;;;5094725;28;20097;-76
2022/10/02 02:50:45;;;;;;;27.27;3.40;;;15.10;99.90;;;;;;5099022;28;20032;-75
2022/10/02 02:53:17;;;;;;;24.33;3.38;;;15.10;99.90;;;;;;5091889;28;20067;-76
2022/10/02 02:55:47;;;;;;;27.63;3.08;;;15.10;99.90;;;;;;5099128;28;20038;-76
2022/10/02 02:58:30;;;;;;;21.75;3.00;;;15.10;99.90;;;;;;5106092;28;20063;-75
2022/10/02 03:00:55;;;;;;;20.42;3.80;;;15.10;99.90;;;;;;5091783;28;20403;-76
2022/10/02 03:03:21;;;;;;;24.48;3.60;;;15.10;99.90;;;;;;5102776;28;20016;-75
2022/10/02 03:05:52;;;;;;;26.45;3.70;;;15.10;99.90;;;;;;5099650;28;20032;-75
2022/10/02 03:08:26;;;;;;;30.77;3.70;;;15.10;99.90;;;;;;5094060;28;20483;-75
2022/10/02 03:11:19;;;;;;;29.67;4.28;;;15.10;99.90;;;;;;5091557;28;20479;-76
2022/10/02 03:14:04;;;;;;;13.10;3.00;;;15.10;99.90;;;;;;5091830;28;20067;-76
2022/10/02 03:17:06;;;;;;;18.05;3.20;;;15.10;99.90;;;;;;5093971;28;20020;-75
2022/10/02 03:20:13;;;;;;;19.77;3.55;;;15.10;99.90;;;;;;5098067;28;20028;-75
2022/10/02 03:22:59;;;;;;;22.77;3.17;;;15.10;99.90;;;;;;5104587;28;20035;-76
2022/10/02 03:26:01;;;;;;;19.13;2.90;;;15.00;99.90;;;;;;5091660;28;20051;-75
2022/10/02 03:28:33;;;;;;;19.42;2.70;;;15.00;99.90;;;;;;5097830;28;20449;-75
2022/10/02 03:31:00;;;;;;;21.17;2.90;;;15.00;99.90;;;;;;5111489;28;20019;-76
2022/10/02 03:33:27;;;;;;;18.25;2.92;;;15.00;99.90;;;;;;5111586;28;20035;-75
2022/10/02 03:35:54;;;;;;;19.92;3.22;;;15.00;99.90;;;;;;5111363;28;20349;-76
2022/10/02 03:38:22;;;;;;;22.38;3.10;;;14.90;99.90;;;;;;5111996;28;20030;-75
2022/10/02 03:40:51;;;;;;;21.55;2.95;;;14.90;99.90;;;;;;5111284;28;20468;-76
2022/10/02 03:43:20;;;;;;;26.23;3.83;;;14.90;99.90;;;;;;5111526;28;20020;-76
2022/10/02 03:45:46;;;;;;;18.58;3.17;;;14.90;99.90;;;;;;5110333;28;20053;-76
2022/10/02 03:48:12;;;;;;;22.17;2.95;;;14.80;99.90;;;;;;5111280;28;20448;-75
2022/10/02 03:50:37;;;;;;;18.50;2.70;;;14.70;99.90;;;;;;5111834;28;20134;-75
2022/10/02 03:53:14;;;;;;;16.20;2.85;;;14.80;99.90;;;;;;5111157;28;20023;-75
2022/10/02 03:55:45;;;;;;;23.42;3.50;;;14.70;99.90;;;;;;5093409;28;20490;-75
2022/10/02 03:58:16;;;;;;;21.33;2.95;;;14.70;99.90;;;;;;5111638;28;20425;-75
2022/10/02 04:01:08;;;;;;;16.95;3.25;;;14.60;99.90;;;;;;5092860;28;20023;-75
2022/10/02 04:03:44;;;;;;;23.02;3.20;;;14.60;99.90;;;;;;5111202;28;20023;-75
2022/10/02 04:06:19;;;;;;;16.92;3.33;;;14.60;99.90;;;;;;5111272;28;20084;-75
2022/10/02 04:08:53;;;;;;;21.52;2.95;;;14.60;99.90;;;;;;5097050;28;20038;-76
2022/10/02 04:11:30;;;;;;;23.05;3.20;;;14.60;99.90;;;;;;5092827;28;20036;-76
2022/10/02 04:14:12;;;;;;;18.15;2.90;;;14.60;99.90;;;;;;5110918;28;20495;-75
2022/10/02 04:16:40;;;;;;;15.52;2.63;;;14.50;99.90;;;;;;5111012;28;20020;-75
2022/10/02 04:19:35;;;;;;;16.75;2.85;;;14.50;99.90;;;;;;5111011;28;20019;-75
2022/10/02 04:22:06;;;;;;;15.95;3.03;;;14.50;99.90;;;;;;5062397;28;20168;-76
2022/10/02 04:24:55;;;;;;;21.77;3.55;;;14.40;99.90;;;;;;5078738;28;20032;-75
2022/10/02 04:27:27;;;;;;;26.90;3.58;;;14.40;99.90;;;;;;5096312;28;20020;-75
2022/10/02 04:30:05;;;;;;;26.63;3.22;;;14.40;99.90;;;;;;5111024;28;20423;-75
2022/10/02 04:32:35;;;;;;;20.23;2.95;;;14.40;99.90;;;;;;5110974;28;20024;-76
2022/10/02 04:35:11;;;;;;;22.17;3.30;;;14.40;99.90;;;;;;5092913;28;20020;-75
2022/10/02 04:38:09;;;;;;;18.02;2.85;;;14.30;99.90;;;;;;5110787;28;20524;-75
2022/10/02 04:41:08;;;;;;;21.23;3.15;;;14.30;99.90;;;;;;5111058;28;20421;-75
2022/10/02 04:43:53;;;;;;;24.35;2.80;;;14.30;99.90;;;;;;5099838;28;20073;-76
2022/10/02 04:46:45;;;;;;;15.88;3.10;;;14.20;99.90;;;;;;5110460;28;20058;-75
2022/10/02 04:49:35;;;;;;;19.00;3.00;;;14.20;99.90;;;;;;5110504;28;20125;-76
2022/10/02 04:52:28;;;;;;;25.90;3.08;;;14.20;99.90;;;;;;5092391;28;20576;-76
2022/10/02 04:55:20;;;;;;;21.13;2.60;;;14.20;99.90;;;;;;5111010;28;20024;-76
2022/10/02 04:58:05;;;;;;;21.75;2.63;;;14.30;99.90;;;;;;5114258;28;20094;-76
2022/10/02 05:00:41;;;;;;;21.05;2.83;;;14.30;99.90;;;;;;5084460;28;20461;-76
2022/10/02 05:03:32;;;;;;;16.02;3.00;;;14.30;99.90;;;;;;5114362;28;20027;-76
2022/10/02 05:06:24;;;;;;;20.90;2.45;;;14.30;99.90;;;;;;5114401;28;20039;-75
2022/10/02 05:09:02;;;;;;;17.40;3.00;;;14.30;99.90;;;;;;5100907;28;20024;-76
2022/10/02 05:11:46;;;;;;;19.90;2.63;;;14.30;99.90;;;;;;5095874;28;20102;-76
2022/10/02 05:14:33;;;;;;;21.35;3.17;;;14.30;99.90;;;;;;5114054;28;20099;-76
2022/10/02 05:17:38;;;;;;;22.85;2.70;;;14.30;99.90;;;;;;5113789;28;20028;-77
2022/10/02 05:20:25;;;;;;;19.67;2.67;;;14.40;99.90;;;;;;5114281;28;20352;-76
2022/10/02 05:23:12;;;;;;;23.80;2.80;;;14.40;99.90;;;;;;5113674;28;20024;-76
2022/10/02 05:26:12;;;;;;;20.08;2.72;;;14.40;99.90;;;;;;5099946;28;20476;-76
2022/10/02 05:28:48;;;;;;;16.08;2.30;;;14.40;99.90;;;;;;5113797;28;20038;-76
2022/10/02 05:31:27;;;;;;;16.33;2.40;;;14.30;99.90;;;;;;5113835;28;20027;-76
2022/10/02 05:34:03;;;;;;;14.45;2.42;;;14.30;99.90;;;;;;5113676;28;20027;-76
2022/10/02 05:36:54;;;;;;;12.05;2.35;;;14.30;99.90;;;;;;5114161;28;20028;-76
2022/10/02 05:39:29;;;;;;;15.27;2.05;;;14.30;99.90;;;;;;5113472;28;20034;-76
2022/10/02 05:42:07;;;;;;;;;;;14.30;99.90;;;;;;5114167;28;20023;-76
2022/10/02 05:44:43;;;;;;;13.77;2.67;;;14.30;99.90;;;;;;5113419;28;19928;-75
2022/10/02 05:47:08;;;;;;;18.33;2.90;;;14.30;99.90;;;;;;5113452;28;20047;-76
2022/10/02 05:49:39;;;;;;;20.63;2.80;;;14.30;99.90;;;;;;5113399;28;20024;-76
2022/10/02 05:52:33;;;;;;;19.63;2.53;;;14.30;99.90;;;;;;5113790;28;20375;-76
2022/10/02 05:55:07;;;;;;;16.95;2.78;;;14.30;99.90;;;;;;5113662;28;20152;-76
2022/10/02 05:57:40;;;;;;;14.52;2.88;;;14.40;99.90;;;;;;5113452;28;20019;-76
2022/10/02 06:00:31;;;;;;;15.65;3.20;;;14.40;99.90;;;;;;5113687;28;20023;-75
2022/10/02 06:03:38;;;;;;;14.07;2.60;;;14.30;99.90;;;;;;5113126;28;20076;-76
2022/10/02 06:06:03;;;;;;;15.77;2.30;;;14.40;99.90;;;;;;5058259;28;20435;-75
2022/10/02 06:08:40;;;;;;;17.52;2.90;;;14.30;99.90;;;;;;5109960;28;20026;-76
2022/10/02 06:11:23;;;;;;;10.20;2.80;;;14.40;99.90;;;;;;5113295;28;20467;-76
2022/10/02 06:13:56;;;;;;;15.00;2.70;;;14.30;99.90;;;;;;5111594;28;20030;-75
2022/10/02 06:16:29;;;;;;;14.90;2.60;;;14.40;99.90;;;;;;5105477;28;20024;-75
2022/10/02 06:19:06;;;;;;;16.98;2.45;;;14.30;99.90;;;;;;5105361;28;20053;-76
2022/10/02 06:21:47;;;;;;;18.88;3.13;;;14.30;99.90;;;;;;5107755;28;20011;-75
2022/10/02 06:24:23;;;;;;;16.90;2.65;;;14.40;99.90;;;;;;5103912;28;20016;-76
2022/10/02 06:27:05;;;;;;;16.23;2.65;;;14.40;99.90;;;;;;5098485;28;20063;-76
2022/10/02 06:29:35;;;;;;;17.05;3.08;;;14.40;99.90;;;;;;5100257;28;20089;-76
2022/10/02 06:32:10;;;;;;;17.05;2.85;;;14.40;99.90;;;;;;5092444;28;20034;-76
2022/10/02 06:34:36;;;;;;;17.27;2.90;;;14.40;99.90;;;;;;5092067;28;20488;-76
2022/10/02 06:37:25;;;;;;;18.15;2.85;;;14.40;99.90;;;;;;5095249;28;20019;-75
2022/10/02 06:40:21;;;;;;;16.83;2.90;;;14.40;99.90;;;;;;5092091;28;20103;-75
2022/10/02 06:42:48;;;;;;;20.67;3.17;;;14.40;99.90;;;;;;5100130;28;20032;-75
2022/10/02 06:45:34;;;;;;;17.10;3.15;;;14.40;99.90;;;;;;5099789;28;20099;-75
2022/10/02 06:48:13;;;;;;;24.80;3.15;;;14.50;99.90;;;;;;5097872;28;20373;-76
2022/10/02 06:51:02;;;;;;;19.80;3.40;;;14.50;99.90;;;;;;5097403;28;20500;-76
2022/10/02 06:53:38;;;;;;;19.92;3.47;;;14.50;99.90;;;;;;5091790;28;20020;-75
2022/10/02 06:56:22;;;;;;;19.92;3.53;;;14.50;99.90;;;;;;5101312;27;20248;-76
2022/10/02 06:59:08;;;;;;;24.67;3.42;;;14.60;99.90;;;;;;5091641;28;20047;-75
2022/10/02 07:02:02;;;;;;;17.63;3.05;;;14.60;99.90;;;;;;5091349;28;20024;-75
2022/10/02 07:05:00;;;;;;;16.52;3.20;;;14.60;99.90;;;;;;5091495;28;20047;-75
2022/10/02 07:07:56;;;;;;;17.75;3.15;;;14.70;99.90;;;;;;4998056;28;20057;-75
2022/10/02 07:10:31;;;;;;;20.08;2.78;;;14.80;99.90;;;;;;4995297;28;20034;-75
2022/10/02 07:12:57;;;;;;;17.27;3.08;;;14.70;99.90;;;;;;5009136;28;20453;-75
2022/10/02 07:16:06;;;;;;;15.05;2.78;;;14.80;99.90;;;;;;5008439;28;20129;-75
2022/10/02 07:18:51;;;;;;;19.52;3.15;;;14.80;99.90;;;;;;4998978;28;20042;-75
2022/10/02 07:21:38;;;;;;;18.73;2.75;;;14.90;99.90;;;;;;5004564;28;20029;-75
2022/10/02 07:24:35;;;;;;;18.38;3.33;;;14.80;99.90;;;;;;5006456;28;20596;-75
2022/10/02 07:27:26;;;;;;;26.17;3.38;;;14.90;99.90;;;;;;4989896;28;20041;-76
2022/10/02 07:30:10;;;;;;;18.20;2.90;;;14.90;99.90;;;;;;5002652;28;20033;-76
2022/10/02 07:32:41;;;;;;;23.52;2.70;;;14.90;99.90;;;;;;5006336;28;20445;-75
2022/10/02 07:35:16;;;;;;;16.55;2.45;;;14.90;99.90;;;;;;5008236;28;20033;-75
2022/10/02 07:37:44;;;;;;;;;;;15.00;99.90;;;;;;5011597;28;20030;-75
2022/10/02 07:40:10;;;;;;;20.63;3.03;;;15.00;99.90;;;;;;5008776;28;19906;-75
2022/10/02 07:42:45;;;;;;;19.70;3.05;;;15.00;99.90;;;;;;5009283;28;20371;-76
2022/10/02 07:45:34;;;;;;;20.92;2.83;;;15.00;99.90;;;;;;5101044;28;20043;-76
2022/10/02 07:48:23;;;;;;;20.58;3.08;;;15.10;99.90;;;;;;5110199;28;20036;-76
2022/10/02 07:51:03;;;;;;;19.45;3.10;;;15.20;99.90;;;;;;5112157;28;20028;-76
2022/10/02 07:53:51;;;;;;;20.52;2.97;;;15.20;99.90;;;;;;5112297;28;20084;-76
2022/10/02 07:56:21;;;;;;;17.33;2.88;;;15.20;99.90;;;;;;5109785;28;20023;-76
2022/10/02 07:59:03;;;;;;;17.23;2.88;;;15.30;99.90;;;;;;5109756;28;20022;-76
2022/10/02 08:01:35;;;;;;;15.40;3.33;;;15.40;99.90;;;;;;5100468;28;20036;-75
2022/10/02 08:04:08;;;;;;;22.00;3.38;;;15.40;99.90;;;;;;5109877;28;20089;-75
2022/10/02 08:06:35;;;;;;;23.30;3.15;;;15.40;99.90;;;;;;5107971;28;20039;-75
2022/10/02 08:09:12;;;;;;;18.75;3.10;;;15.50;99.90;;;;;;5088184;28;20035;-76
2022/10/02 08:11:42;;;;;;;16.05;2.53;;;15.50;99.90;;;;;;5088597;28;20038;-74
2022/10/02 08:14:34;;;;;;;22.83;3.15;;;15.60;99.90;;;;;;5106651;28;20122;-74
2022/10/02 08:17:22;;;;;;;19.10;3.20;;;15.60;99.90;;;;;;5106536;28;20027;-74
2022/10/02 08:19:50;;;;;;;19.20;3.10;;;15.60;99.90;;;;;;5095943;28;20051;-74
2022/10/02 08:22:27;;;;;;;16.60;2.92;;;15.70;99.90;;;;;;5094560;28;20035;-74
2022/10/02 08:24:57;;;;;;;21.05;3.40;;;15.80;99.90;;;;;;5089975;28;20028;-75
2022/10/02 08:27:52;;;;;;;15.50;3.05;;;15.80;99.90;;;;;;5106788;28;20407;-74
2022/10/02 08:30:18;;;;;;;18.85;3.30;;;15.90;99.90;;;;;;5072714;28;20039;-74
2022/10/02 08:32:46;;;;;;;19.27;3.03;;;15.90;99.90;;;;;;5110097;28;20495;-75
2022/10/02 08:35:17;;;;;;;18.30;3.10;;;16.00;99.90;;;;;;5110875;28;20031;-75
2022/10/02 08:37:51;;;;;;;20.17;3.42;;;16.00;99.90;;;;;;5105825;28;20046;-75
2022/10/02 08:40:41;;;;;;;21.05;2.85;;;16.10;99.90;;;;;;5095561;28;20046;-77
2022/10/02 08:43:44;;;;;;;19.70;3.00;;;16.20;99.90;;;;;;5094553;28;20028;-75
2022/10/02 08:46:13;;;;;;;23.25;3.25;;;16.30;99.90;;;;;;5096172;28;20290;-75
2022/10/02 08:48:54;;;;;;;17.65;2.35;;;16.40;99.90;;;;;;5111791;28;20058;-74
2022/10/02 08:51:38;;;;;;;14.00;2.60;;;16.40;99.90;;;;;;5093954;28;20020;-76
2022/10/02 08:54:27;;;;;;;15.90;2.45;;;16.50;99.90;;;;;;5096300;28;20047;-75
2022/10/02 08:56:57;;;;;;;16.30;3.20;;;16.50;99.90;;;;;;5078488;28;20020;-75
2022/10/02 08:59:25;;;;;;;14.95;2.67;;;16.50;99.90;;;;;;5097244;28;20589;-75
2022/10/02 09:02:28;;;;;;;19.05;3.20;;;16.60;99.90;;;;;;5094107;28;20088;-75
2022/10/02 09:05:27;;;;;;;19.88;2.92;;;16.60;99.90;;;;;;5110991;28;20065;-75
2022/10/02 09:08:20;;;;;;;21.55;2.80;;;16.70;99.90;;;;;;5095634;28;20032;-75
2022/10/02 09:11:07;;;;;;;16.40;3.22;;;16.70;99.90;;;;;;5102604;28;20152;-75
2022/10/02 09:14:09;;;;;;;16.52;2.70;;;16.70;99.90;;;;;;5093595;28;20046;-75
2022/10/02 09:16:35;;;;;;;16.02;3.15;;;16.70;99.90;;;;;;5108074;28;20103;-75
2022/10/02 09:19:12;;;;;;;15.10;2.85;;;16.70;99.90;;;;;;5100465;28;20094;-75
2022/10/02 09:21:50;;;;;;;13.93;2.30;;;16.70;99.90;;;;;;5109769;28;20024;-75
2022/10/02 09:24:30;;;;;;;15.60;2.10;;;16.70;99.90;;;;;;5095207;28;20032;-75
2022/10/02 09:27:33;;;;;;;12.88;2.35;;;16.70;99.90;;;;;;5114480;28;20356;-74
2022/10/02 09:30:38;;;;;;;17.75;3.05;;;16.70;99.90;;;;;;5103305;28;20115;-75
2022/10/02 09:33:52;;;;;;;13.90;3.20;;;16.80;99.90;;;;;;5100402;28;20072;-74
2022/10/02 09:36:30;;;;;;;16.67;2.60;;;16.90;99.90;;;;;;5092933;28;20110;-75
2022/10/02 09:39:08;;;;;;;14.20;2.10;;;17.10;99.90;;;;;;5113650;28;20379;-75
2022/10/02 09:42:08;;;;;;;16.45;2.60;;;17.30;99.90;;;;;;5099566;28;20034;-75
2022/10/02 09:45:01;;;;;;;13.52;1.90;;;17.30;99.90;;;;;;5113324;28;20418;-74
2022/10/02 09:48:09;;;;;;;13.15;2.70;;;17.40;99.90;;;;;;5113539;28;20471;-74
2022/10/02 09:50:53;;;;;;;19.48;2.72;;;17.70;99.90;;;;;;5104110;28;20023;-74
2022/10/02 09:53:37;;;;;;;15.25;2.92;;;17.90;99.90;;;;;;5113397;28;20020;-74
2022/10/02 09:56:14;;;;;;;11.40;2.22;;;18.00;99.90;;;;;;5113767;28;20024;-74
2022/10/02 09:58:57;;;;;;;17.58;2.65;;;18.10;99.90;;;;;;5100743;28;20042;-74
2022/10/02 10:02:01;;;;;;;17.98;3.17;;;18.10;99.90;;;;;;5113618;28;20026;-75
2022/10/02 10:04:57;;;;;;;11.05;2.50;;;18.00;99.90;;;;;;5107557;28;20028;-74
2022/10/02 10:07:52;;;;;;;19.05;2.72;;;18.00;99.90;;;;;;5100519;28;20089;-75
2022/10/02 10:10:28;;;;;;;15.63;2.87;;;18.10;99.90;;;;;;5106879;28;20069;-75
2022/10/02 10:13:31;;;;;;;18.20;2.78;;;18.20;99.90;;;;;;5112448;28;20269;-76
2022/10/02 10:16:10;;;;;;;19.15;2.63;;;18.20;99.90;;;;;;5109346;28;20024;-75
2022/10/02 10:18:55;;;;;;;11.38;2.38;;;18.30;99.90;;;;;;5105837;28;20046;-77
2022/10/02 10:21:29;;;;;;;11.88;2.20;;;18.20;99.90;;;;;;5089601;28;20030;-74
2022/10/02 10:24:01;;;;;;;17.10;2.30;;;18.20;99.90;;;;;;5108597;28;20024;-75
2022/10/02 10:26:33;;;;;;;14.57;2.58;;;18.10;99.90;;;;;;5109702;28;20019;-76
2022/10/02 10:29:14;;;;;;;17.83;3.10;;;18.10;99.90;;;;;;5110493;28;20054;-74
2022/10/02 10:31:52;;;;;;;15.52;2.20;;;18.00;99.90;;;;;;5105659;28;20046;-74
2022/10/02 10:34:41;;;;;;;14.48;2.65;;;18.10;99.90;;;;;;5102233;28;20535;-74
2022/10/02 10:40:25;;;;;;;16.50;2.40;;;18.00;99.90;;;;;;5090707;28;20427;-74
2022/10/02 10:42:57;;;;;;;17.58;2.58;;;18.00;99.90;;;;;;5091666;28;20776;-74
2022/10/02 10:45:55;;;;;;;16.80;2.13;;;18.00;99.90;;;;;;5092389;28;20059;-74
2022/10/02 10:48:24;;;;;;;12.88;2.60;;;18.00;99.90;;;;;;5089281;28;20036;-76
2022/10/02 10:51:02;;;;;;;12.13;2.33;;;18.00;99.90;;;;;;5091047;28;20513;-75
2022/10/02 10:53:30;;;;;;;13.50;2.20;;;18.00;99.90;;;;;;5093562;28;20016;-74
2022/10/02 10:56:18;;;;;;;15.25;2.40;;;18.00;99.90;;;;;;5096341;28;20471;-74
2022/10/02 10:59:21;;;;;;;15.85;2.50;;;18.10;99.90;;;;;;5097870;28;20327;-75
2022/10/02 11:02:15;;;;;;;18.15;2.90;;;18.20;99.90;;;;;;5091560;28;20032;-74
2022/10/02 11:05:00;;;;;;;13.73;2.45;;;18.10;99.90;;;;;;5092167;28;20395;-74
2022/10/02 11:07:25;;;;;;;15.93;2.53;;;18.20;99.90;;;;;;5096487;28;20058;-74
2022/10/02 11:10:29;;;;;;;15.50;2.47;;;18.20;99.90;;;;;;5099894;28;20263;-75
2022/10/02 11:13:24;;;;;;;13.98;2.70;;;18.40;99.90;;;;;;5089208;28;20020;-74
2022/10/02 11:16:06;;;;;;;12.40;2.70;;;18.40;99.90;;;;;;5097922;28;20023;-75
2022/10/02 11:18:49;;;;;;;15.60;2.55;;;18.30;99.90;;;;;;5101891;28;20084;-73
2022/10/02 11:21:46;;;;;;;16.63;3.05;;;18.30;99.90;;;;;;5088640;28;20023;-75
2022/10/02 11:24:18;;;;;;;19.02;2.65;;;18.20;99.90;;;;;;5102424;28;20105;-75
2022/10/02 11:27:14;;;;;;;15.60;2.38;;;18.20;99.90;;;;;;5104476;28;20030;-74
2022/10/02 11:29:43;;;;;;;16.13;2.30;;;18.20;99.90;;;;;;5109356;28;20016;-74
2022/10/02 11:32:32;;;;;;;14.13;2.55;;;18.10;99.90;;;;;;5108225;28;20031;-74
2022/10/02 11:35:22;;;;;;;15.38;2.45;;;18.20;99.90;;;;;;5102297;28;20027;-75
2022/10/02 11:38:13;;;;;;;10.95;2.55;;;18.20;99.90;;;;;;5081956;28;20020;-75
2022/10/02 11:40:58;;;;;;;11.80;2.33;;;18.30;99.90;;;;;;5088708;28;20068;-74
2022/10/02 11:43:50;;;;;;;12.75;2.78;;;18.40;99.90;;;;;;5089156;28;20107;-75
2022/10/02 11:46:35;;;;;;;15.15;2.60;;;18.50;99.90;;;;;;5093978;28;20102;-75
2022/10/02 11:49:07;;;;;;;12.60;2.22;;;18.70;99.90;;;;;;5104256;28;20032;-75
2022/10/02 11:52:07;;;;;;;14.75;2.50;;;18.80;99.90;;;;;;5113171;28;20096;-75
2022/10/02 11:54:43;;;;;;;14.13;2.60;;;19.00;99.90;;;;;;5103105;28;20028;-76
2022/10/02 11:57:15;;;;;;;11.18;2.30;;;19.20;99.90;;;;;;5106222;28;20590;-76
2022/10/02 12:00:31;;;;;;;11.75;2.40;;;19.20;99.90;;;;;;5090100;28;20020;-75
2022/10/02 12:03:03;;;;;;;16.23;2.45;;;19.20;99.90;;;;;;4991309;28;20042;-75
2022/10/02 12:05:35;;;;;;;18.13;2.85;;;19.20;99.90;;;;;;4988046;28;20030;-77
2022/10/02 12:08:17;;;;;;;12.52;2.60;;;19.00;99.90;;;;;;4988246;28;20026;-76
2022/10/02 12:10:55;;;;;;;15.13;2.65;;;18.80;99.90;;;;;;4987151;28;20034;-75
2022/10/02 12:13:58;;;;;;;14.27;2.47;;;18.60;99.90;;;;;;4992310;28;20046;-76
2022/10/02 12:16:56;;;;;;;13.35;2.30;;;18.50;99.90;;;;;;4991126;28;20263;-76
2022/10/02 12:26:57;;;;;;;12.35;2.60;;;18.30;99.90;;;;;;4992367;28;20135;-76
2022/10/02 12:29:15;;;;;;;15.88;2.50;;;18.10;99.90;;;;;;4992296;28;20041;-75
2022/10/02 12:31:54;;;;;;;13.57;2.78;;;18.00;99.90;;;;;;4956740;28;20578;-76
2022/10/02 12:34:41;;;;;;;18.17;2.50;;;18.00;99.90;;;;;;4991916;28;20049;-76
2022/10/02 12:37:40;;;;;;;14.65;2.40;;;17.90;99.90;;;;;;4996866;28;20057;-76
2022/10/02 12:40:31;;;;;;;13.23;2.63;;;17.80;99.90;;;;;;5087983;28;20035;-77
2022/10/02 12:43:37;;;;;;;18.40;2.67;;;17.70;99.90;;;;;;5085596;28;20023;-76
2022/10/02 12:46:02;;;;;;;16.45;2.80;;;17.60;99.90;;;;;;5103468;28;20048;-76
2022/10/02 12:48:44;;;;;;;13.05;2.33;;;17.60;99.90;;;;;;5108601;28;20160;-76
2022/10/02 12:51:25;;;;;;;11.23;2.53;;;17.70;99.90;;;;;;5105267;28;20459;-76
2022/10/02 12:53:53;;;;;;;10.90;2.40;;;17.70;99.90;;;;;;5108103;28;20499;-76
2022/10/02 12:57:01;;;;;;;15.82;2.60;;;17.60;99.90;;;;;;5102699;28;20024;-76
2022/10/02 12:59:36;;;;;;;19.65;2.40;;;17.60;99.90;;;;;;5104870;28;20023;-76
2022/10/02 13:02:39;;;;;;;12.60;2.17;;;17.60;99.90;;;;;;5107093;28;20027;-76
2022/10/02 13:05:42;;;;;;;16.35;2.67;;;17.50;99.90;;;;;;5099321;28;20031;-76
2022/10/02 13:08:35;;;;;;;14.95;2.67;;;17.40;99.90;;;;;;5104759;28;20050;-77
2022/10/02 13:11:25;;;;;;;17.15;2.67;;;17.40;99.90;;;;;;5102951;28;20105;-76
2022/10/02 13:14:14;;;;;;;19.15;2.72;;;17.40;99.90;;;;;;5088133;28;20059;-76
2022/10/02 13:16:48;;;;;;;15.68;2.75;;;17.40;99.90;;;;;;5108495;28;20027;-76
2022/10/02 13:19:52;;;;;;;13.73;2.47;;;17.40;99.90;;;;;;5115836;28;20476;-76
2022/10/02 13:22:30;;;;;;;15.90;2.70;;;17.40;99.90;;;;;;5114813;28;20020;-78
2022/10/02 13:25:22;;;;;;;14.02;2.50;;;17.30;99.90;;;;;;5108250;28;20099;-76
2022/10/02 13:28:12;;;;;;;17.73;2.50;;;17.30;99.90;;;;;;5118035;28;20055;-76
2022/10/02 13:31:01;;;;;;;13.15;2.67;;;17.20;99.90;;;;;;5098440;28;20024;-77
2022/10/02 13:34:00;;;;;;;13.73;2.60;;;17.20;99.90;;;;;;5076347;28;20081;-76
2022/10/02 13:36:37;;;;;;;17.27;2.60;;;17.30;99.90;;;;;;5106078;28;20020;-76
2022/10/02 13:39:33;;;;;;;15.73;2.70;;;17.40;99.90;;;;;;5119014;28;20044;-76
2022/10/02 13:42:33;;;;;;;17.67;2.70;;;17.40;99.90;;;;;;5105209;28;20022;-75
2022/10/02 13:45:02;;;;;;;18.02;2.58;;;17.40;99.90;;;;;;5113890;28;20036;-76
2022/10/02 13:47:40;;;;;;;15.60;2.58;;;17.40;99.90;;;;;;5094720;28;20502;-76
2022/10/02 13:50:23;;;;;;;12.13;2.47;;;17.40;99.90;;;;;;5107006;28;20035;-77
2022/10/02 13:53:19;;;;;;;16.17;2.70;;;17.40;99.90;;;;;;5108236;28;20406;-76
2022/10/02 13:56:08;;;;;;;;;;;17.40;99.90;;;;;;5095862;28;20038;-77
2022/10/02 13:59:11;;;;;;;18.30;2.83;;;17.30;99.90;;;;;;5030097;28;19905;-76
2022/10/02 14:01:45;;;;;;;16.92;2.97;;;17.20;99.90;;;;;;5030306;28;20029;-77